ADDS METAR Data INFO
IDs: Format: Raw Decoded Include TAF

Data at: 0406 UTC 11 Dec 2017

KHRO 110353Z AUTO 29005KT 10SM CLR 09/M06 A3019 RMK AO2 SLP223 T00891056
KHRO 110253Z AUTO 27007KT 10SM CLR 10/M06 A3018 RMK AO2 SLP221 T01001056 51005
KHRO 110153Z AUTO 28005KT 10SM CLR 10/M05 A3018 RMK AO2 SLP223 T01001050
KHRO 110053Z AUTO VRB05KT 10SM CLR 09/M05 A3018 RMK AO2 SLP223 T00941050
KHRO 102353Z AUTO 29006KT 10SM CLR 11/M06 A3017 RMK AO2 SLP222 T01061056 10167 20100 53015
KHRO 102253Z AUTO 28008KT 10SM CLR 12/M06 A3014 RMK AO2 SLP211 T01221061
KHRO 102153Z AUTO 29011KT 10SM CLR 14/M06 A3013 RMK AO2 SLP207 T01441061
KHRO 102053Z AUTO 28012G19KT 10SM CLR 15/M06 A3012 RMK AO2 SLP204 T01501061 56007
KHRO 101953Z AUTO 31014G21KT 10SM CLR 16/M07 A3013 RMK AO2 SLP203 T01561072
KHRO 101853Z AUTO 29009G14KT 10SM CLR 16/M07 A3012 RMK AO2 SLP201 T01561067
KHRO 101753Z AUTO 28010G17KT 10SM CLR 15/M07 A3014 RMK AO2 SLP209 T01501067 10150 21033 58007
KHRO 101653Z AUTO 26013G18KT 10SM CLR 13/M06 A3016 RMK AO2 PK WND 25026/1555 SLP214 T01331061
KHRO 101553Z AUTO 27012G21KT 10SM CLR 12/M06 A3016 RMK AO2 SLP216 T01221061
KHRO 101453Z AUTO 26012G20KT 10SM CLR 09/M06 A3016 RMK AO2 SLP219 T00941056 58010
KHRO 101353Z AUTO 25010KT 10SM CLR 07/M05 A3018 RMK AO2 SLP225 T00671050
KHRO 101253Z AUTO 25007KT 10SM CLR 04/M06 A3019 RMK AO2 SLP230 T00441056
KHRO 101153Z AUTO 13003KT 10SM CLR M03/M07 A3020 RMK AO2 SLP236 T10331072 10006 21039 58012
KHRO 101053Z AUTO 00000KT 10SM CLR M02/M07 A3022 RMK AO2 SLP241 T10221072
KHRO 100953Z AUTO 18004KT 10SM CLR 00/M07 A3023 RMK AO2 SLP243 T00001072
KHRO 100853Z AUTO 19003KT 10SM CLR M02/M07 A3024 RMK AO2 SLP246 T10171072 55004
KHRO 100753Z AUTO 26003KT 10SM CLR 00/M07 A3023 RMK AO2 SLP243 T00001072
KHRO 100653Z AUTO 26004KT 10SM CLR 00/M07 A3024 RMK AO2 SLP245 T00001072
KHRO 100553Z AUTO 28005KT 10SM CLR 01/M07 A3025 RMK AO2 SLP249 T00061072 10033 20006 400721011 53002
KHRO 100453Z AUTO 28006KT 10SM CLR 01/M07 A3025 RMK AO2 SLP250 T00061072
KHRO 100353Z AUTO 28005KT 10SM CLR 01/M07 A3024 RMK AO2 SLP248 T00111072
KHRO 100253Z AUTO 28004KT 10SM CLR 01/M07 A3024 RMK AO2 SLP249 T00111072 53019
KHRO 100153Z AUTO 29005KT 10SM CLR 02/M07 A3022 RMK AO2 SLP241 T00171072
KHRO 100053Z AUTO 30005KT 10SM CLR 02/M07 A3020 RMK AO2 SLP236 T00221072
KHRO 092353Z AUTO 31006KT 10SM CLR 03/M07 A3018 RMK AO2 SLP229 T00331072 10072 20033 51021
KHRO 092253Z AUTO 31005KT 10SM CLR 04/M08 A3017 RMK AO2 SLP226 T00441083
KHRO 092153Z AUTO 30013G22KT 10SM CLR 06/M08 A3014 RMK AO2 SLP214 T00611083
KHRO 092053Z AUTO 30010G18KT 10SM CLR 07/M08 A3012 RMK AO2 PK WND 28026/2000 SLP205 T00671083 53013
KHRO 091953Z AUTO 29012KT 10SM CLR 07/M07 A3010 RMK AO2 SLP199 T00671072
KHRO 091853Z AUTO 30014G22KT 10SM CLR 06/M06 A3009 RMK AO2 SLP194 T00611061
KHRO 091753Z AUTO 30011G19KT 10SM CLR 06/M06 A3008 RMK AO2 SLP193 T00561056 10056 21006 50015
KHRO 091653Z AUTO 32010G22KT 10SM CLR 04/M05 A3008 RMK AO2 SLP194 T00441050